createdAt,value
2022-07-31T00:04:12.248Z,4.67
2022-07-31T00:09:52.261Z,4.43
2022-07-31T00:14:29.629Z,5.83
2022-07-31T00:19:38.137Z,5.13
2022-07-31T00:24:45.991Z,4.97
2022-07-31T00:29:53.867Z,5.20
2022-07-31T00:35:01.804Z,4.73
2022-07-31T00:40:11.837Z,3.83
2022-07-31T00:45:22.172Z,4.50
2022-07-31T00:50:29.228Z,5.73
2022-07-31T00:55:41.812Z,3.07
2022-07-31T01:00:48.835Z,4.07
2022-07-31T01:05:56.803Z,3.23
2022-07-31T01:11:07.858Z,4.03
2022-07-31T01:16:15.848Z,2.80
2022-07-31T01:21:29.743Z,3.40
2022-07-31T01:26:40.733Z,1.67
2022-07-31T01:31:52.613Z,4.10
2022-07-31T01:37:03.930Z,2.50
2022-07-31T01:42:12.310Z,4.27
2022-07-31T01:47:21.862Z,3.57
2022-07-31T01:52:30.612Z,4.40
2022-07-31T01:57:38.987Z,3.23
2022-07-31T02:02:46.937Z,3.77
2022-07-31T02:07:55.577Z,4.77
2022-07-31T02:13:03.402Z,2.67
2022-07-31T02:18:11.815Z,3.10
2022-07-31T02:23:20.126Z,2.80
2022-07-31T02:28:27.986Z,3.40
2022-07-31T02:33:37.099Z,3.67
2022-07-31T02:38:45.066Z,3.50
2022-07-31T02:43:53.085Z,4.77
2022-07-31T02:49:01.020Z,3.90
2022-07-31T02:54:09.134Z,3.60
2022-07-31T02:59:17.012Z,4.03
2022-07-31T03:04:24.845Z,4.10
2022-07-31T03:09:32.707Z,2.97
2022-07-31T03:14:40.733Z,3.57
2022-07-31T03:19:49.635Z,1.97
2022-07-31T03:24:58.059Z,2.73
2022-07-31T03:30:07.107Z,5.00
2022-07-31T03:35:14.937Z,2.87
2022-07-31T03:40:22.952Z,4.10
2022-07-31T03:45:31.949Z,4.30
2022-07-31T03:50:39.865Z,5.90
2022-07-31T03:55:48.101Z,7.57
2022-07-31T04:00:55.973Z,4.30
2022-07-31T04:06:04.922Z,5.40
2022-07-31T04:11:12.782Z,4.73
2022-07-31T04:16:20.706Z,6.37
2022-07-31T04:21:29.133Z,5.23
2022-07-31T04:26:37.785Z,4.23
2022-07-31T04:31:45.656Z,3.77
2022-07-31T04:36:53.575Z,7.27
2022-07-31T04:42:01.878Z,6.50
2022-07-31T04:47:09.999Z,5.87
2022-07-31T04:52:17.932Z,5.70
2022-07-31T04:57:25.795Z,6.00
2022-07-31T05:02:33.851Z,5.63
2022-07-31T05:07:41.784Z,5.00
2022-07-31T05:12:49.650Z,6.03
2022-07-31T05:17:57.576Z,5.23
2022-07-31T05:23:06.729Z,6.50
2022-07-31T05:28:16.176Z,5.07
2022-07-31T05:33:25.277Z,7.07
2022-07-31T05:38:33.185Z,6.70
2022-07-31T05:43:41.068Z,4.90
2022-07-31T05:48:49.082Z,4.90
2022-07-31T05:53:58.605Z,6.13
2022-07-31T05:59:06.532Z,7.53
2022-07-31T06:04:14.451Z,10.10
2022-07-31T06:09:22.377Z,8.60
2022-07-31T06:14:30.237Z,6.43
2022-07-31T06:19:38.263Z,8.03
2022-07-31T06:24:46.259Z,3.03
2022-07-31T06:29:54.677Z,4.10
2022-07-31T06:35:02.545Z,6.57
2022-07-31T06:40:11.047Z,6.47
2022-07-31T06:45:41.671Z,4.77
2022-07-31T06:50:29.403Z,5.30
2022-07-31T06:55:37.560Z,3.20
2022-07-31T07:00:47.096Z,3.20
2022-07-31T07:05:54.926Z,5.40
2022-07-31T07:11:02.750Z,6.37
2022-07-31T07:16:11.691Z,3.27
2022-07-31T07:21:20.398Z,1.27
2022-07-31T07:26:28.214Z,3.47
2022-07-31T07:31:36.249Z,1.70
2022-07-31T07:36:44.197Z,3.23
2022-07-31T07:41:53.250Z,1.63
2022-07-31T07:47:01.098Z,2.17
2022-07-31T07:52:08.958Z,1.67
2022-07-31T07:57:17.976Z,2.37
2022-07-31T08:02:25.867Z,1.90
2022-07-31T08:07:41.564Z,3.53
2022-07-31T08:12:44.569Z,4.70
2022-07-31T08:17:52.595Z,3.60
2022-07-31T08:23:00.447Z,2.93
2022-07-31T08:28:11.179Z,1.57
2022-07-31T08:33:17.830Z,2.80
2022-07-31T08:38:25.745Z,2.10
2022-07-31T08:44:01.927Z,2.67
2022-07-31T08:48:43.481Z,2.33
2022-07-31T08:53:52.757Z,2.47
2022-07-31T08:59:00.575Z,1.50
2022-07-31T09:04:08.493Z,2.40
2022-07-31T09:09:18.784Z,1.60
2022-07-31T09:14:29.797Z,2.03
2022-07-31T09:19:52.262Z,2.23
2022-07-31T09:24:49.270Z,1.70
2022-07-31T09:29:57.696Z,1.87
2022-07-31T09:35:09.297Z,1.70
2022-07-31T09:40:21.273Z,1.70
2022-07-31T09:45:26.798Z,1.53
2022-07-31T09:50:34.647Z,0.83
2022-07-31T09:55:45.825Z,1.60
2022-07-31T10:00:54.887Z,1.23
2022-07-31T10:06:02.750Z,1.90
2022-07-31T10:11:16.703Z,0.60
2022-07-31T10:16:22.027Z,1.63
2022-07-31T10:21:33.019Z,1.43
2022-07-31T10:26:59.924Z,1.80
2022-07-31T10:31:50.400Z,1.50
2022-07-31T10:37:00.374Z,1.10
2022-07-31T10:42:11.317Z,1.43
2022-07-31T10:47:19.420Z,1.90
2022-07-31T10:52:48.254Z,0.90
2022-07-31T10:57:57.733Z,1.87
2022-07-31T11:03:12.077Z,0.60
2022-07-31T11:08:18.666Z,0.97
2022-07-31T11:13:33.706Z,0.97
2022-07-31T11:18:36.121Z,1.17
2022-07-31T11:23:56.452Z,1.10
2022-07-31T11:28:53.552Z,1.20
2022-07-31T11:34:04.463Z,1.27
2022-07-31T11:39:14.207Z,1.10
2022-07-31T11:44:23.940Z,1.20
2022-07-31T11:49:39.170Z,1.00
2022-07-31T11:54:43.791Z,0.83
2022-07-31T11:59:51.684Z,1.13
2022-07-31T12:10:23.619Z,0.97
2022-07-31T12:15:31.418Z,0.60
2022-07-31T12:20:39.253Z,0.90
2022-07-31T12:25:47.158Z,0.80
2022-07-31T12:30:58.511Z,0.63
2022-07-31T12:36:09.514Z,0.67
2022-07-31T12:41:17.561Z,0.50
2022-07-31T12:46:29.134Z,1.00
2022-07-31T12:51:46.313Z,0.90
2022-07-31T12:56:48.419Z,0.90
2022-07-31T13:01:56.975Z,0.30
2022-07-31T13:07:05.748Z,0.80
2022-07-31T13:12:13.887Z,0.50
2022-07-31T13:17:22.431Z,0.40
2022-07-31T13:22:30.325Z,0.50
2022-07-31T13:27:38.244Z,0.60
2022-07-31T13:32:46.087Z,0.70
2022-07-31T13:37:54.559Z,0.60
2022-07-31T13:43:02.507Z,0.70
2022-07-31T13:48:10.604Z,0.53
2022-07-31T13:53:18.601Z,0.50
2022-07-31T13:58:27.553Z,0.60
2022-07-31T14:03:36.415Z,0.77
2022-07-31T14:08:49.884Z,0.93
2022-07-31T14:13:54.111Z,0.40
2022-07-31T14:19:02.062Z,1.63
2022-07-31T14:24:10.023Z,0.70
2022-07-31T14:29:17.995Z,0.67
2022-07-31T14:34:32.595Z,0.50
2022-07-31T14:39:35.506Z,0.63
2022-07-31T14:44:45.547Z,0.60
2022-07-31T14:50:08.826Z,0.67
2022-07-31T14:55:03.076Z,0.60
2022-07-31T15:00:13.461Z,0.60
2022-07-31T15:06:40.907Z,0.60
2022-07-31T15:10:31.462Z,0.40
2022-07-31T15:15:39.586Z,0.40
2022-07-31T15:20:47.584Z,0.63
2022-07-31T15:25:55.600Z,0.30
2022-07-31T15:31:04.426Z,0.60
2022-07-31T15:36:15.293Z,0.60
2022-07-31T15:41:22.716Z,0.40
2022-07-31T15:46:30.569Z,0.50
2022-07-31T15:51:38.907Z,0.47
2022-07-31T15:56:47.413Z,0.50
2022-07-31T16:01:55.398Z,0.60
2022-07-31T16:08:30.685Z,0.40
2022-07-31T16:12:13.861Z,0.67
2022-07-31T16:17:21.753Z,0.30
2022-07-31T16:22:29.705Z,0.30
2022-07-31T16:27:37.910Z,0.40
2022-07-31T16:32:45.829Z,0.53
2022-07-31T16:37:54.391Z,0.40
2022-07-31T16:43:50.572Z,0.70
2022-07-31T16:48:13.012Z,0.40
2022-07-31T16:54:11.278Z,0.50
2022-07-31T16:58:30.864Z,0.40
2022-07-31T17:04:01.995Z,0.10
2022-07-31T17:08:49.330Z,0.40
2022-07-31T17:13:57.537Z,0.50
2022-07-31T17:19:05.776Z,0.40
2022-07-31T17:24:16.104Z,0.30
2022-07-31T17:29:27.404Z,0.10
2022-07-31T17:34:35.714Z,0.40
2022-07-31T17:39:43.676Z,0.20
2022-07-31T17:44:55.207Z,0.40
2022-07-31T17:50:02.060Z,0.00
2022-07-31T17:55:11.106Z,0.00
2022-07-31T18:00:19.336Z,0.00
2022-07-31T18:05:27.184Z,0.00
2022-07-31T18:10:53.605Z,0.30
2022-07-31T18:15:44.896Z,0.20
2022-07-31T18:20:53.164Z,0.00
2022-07-31T18:26:01.098Z,0.00
2022-07-31T18:31:30.690Z,0.00
2022-07-31T18:36:20.072Z,0.10
2022-07-31T18:41:28.622Z,0.00
2022-07-31T18:46:36.939Z,0.00
2022-07-31T18:51:44.751Z,0.00
2022-07-31T18:56:52.660Z,0.00
2022-07-31T19:02:01.548Z,0.00
2022-07-31T19:07:09.544Z,0.00
2022-07-31T19:12:17.415Z,0.00
2022-07-31T19:17:25.384Z,0.23
2022-07-31T19:22:35.119Z,0.00
2022-07-31T19:27:48.061Z,0.00
2022-07-31T19:32:53.434Z,0.00
2022-07-31T19:38:04.343Z,0.00
2022-07-31T19:43:12.318Z,0.30
2022-07-31T19:48:20.226Z,0.00
2022-07-31T19:53:28.205Z,0.00
2022-07-31T19:58:36.608Z,0.00
2022-07-31T20:03:44.731Z,0.00
2022-07-31T20:08:52.798Z,0.63
2022-07-31T20:14:01.221Z,0.00
2022-07-31T20:19:09.161Z,0.00
2022-07-31T20:24:18.065Z,0.00
2022-07-31T20:29:27.081Z,0.00
2022-07-31T20:34:35.013Z,0.00
2022-07-31T20:39:42.876Z,0.00
2022-07-31T20:44:51.121Z,0.00
2022-07-31T20:49:59.182Z,0.00
2022-07-31T20:55:07.687Z,0.00
2022-07-31T21:00:16.016Z,0.00
2022-07-31T21:05:26.949Z,0.00
2022-07-31T21:10:35.784Z,0.00
2022-07-31T21:15:45.327Z,0.00
2022-07-31T21:20:53.911Z,0.00
2022-07-31T21:26:03.063Z,0.00
2022-07-31T21:31:11.360Z,0.70
2022-07-31T21:36:19.325Z,0.00
2022-07-31T21:41:27.465Z,0.00
2022-07-31T21:46:37.074Z,1.30
2022-07-31T21:51:45.583Z,1.60
2022-07-31T21:56:53.767Z,0.13
2022-07-31T22:02:01.700Z,0.60
2022-07-31T22:07:11.783Z,0.10
2022-07-31T22:12:19.699Z,0.00
2022-07-31T22:17:27.916Z,0.00
2022-07-31T22:22:36.795Z,0.00
2022-07-31T22:27:47.744Z,1.13
2022-07-31T22:32:56.736Z,0.00
2022-07-31T22:38:04.583Z,0.00
2022-07-31T22:44:11.048Z,0.00
2022-07-31T22:48:22.440Z,0.00
2022-07-31T22:53:36.282Z,0.80
2022-07-31T22:58:45.841Z,0.00
2022-07-31T23:03:54.159Z,0.00
2022-07-31T23:09:02.535Z,0.00
2022-07-31T23:14:10.550Z,0.00
2022-07-31T23:19:18.693Z,0.00
2022-07-31T23:24:26.513Z,0.00
2022-07-31T23:29:34.357Z,0.00
2022-07-31T23:34:44.868Z,0.00
2022-07-31T23:39:52.998Z,0.00
2022-07-31T23:45:00.918Z,0.00
2022-07-31T23:50:09.424Z,0.00
2022-07-31T23:55:17.303Z,0.00
